createdAt,value
2022-11-28T00:01:50.096Z,3.88
2022-11-28T00:04:18.877Z,3.97
2022-11-28T00:06:50.997Z,3.94
2022-11-28T00:09:21.275Z,3.95
2022-11-28T00:11:51.944Z,3.98
2022-11-28T00:14:21.684Z,3.98
2022-11-28T00:16:50.805Z,3.98
2022-11-28T00:19:19.537Z,4.00
2022-11-28T00:21:48.216Z,4.02
2022-11-28T00:24:16.857Z,4.05
2022-11-28T00:26:45.574Z,4.02
2022-11-28T00:29:15.553Z,4.03
2022-11-28T00:31:44.464Z,4.03
2022-11-28T00:34:14.872Z,4.02
2022-11-28T00:36:46.024Z,3.98
2022-11-28T00:39:16.193Z,4.01
2022-11-28T00:41:45.778Z,3.99
2022-11-28T00:44:16.366Z,3.98
2022-11-28T00:46:45.104Z,4.00
2022-11-28T00:49:13.886Z,4.01
2022-11-28T00:51:42.946Z,4.02
2022-11-28T00:54:11.740Z,4.04
2022-11-28T00:56:41.308Z,4.04
2022-11-28T00:59:10.026Z,4.00
2022-11-28T01:01:42.362Z,4.02
2022-11-28T01:04:13.650Z,4.11
2022-11-28T01:06:44.429Z,4.12
2022-11-28T01:09:15.803Z,4.08
2022-11-28T01:11:45.223Z,4.06
2022-11-28T01:14:14.468Z,4.07
2022-11-28T01:16:44.653Z,4.10
2022-11-28T01:19:14.159Z,4.11
2022-11-28T01:21:43.387Z,4.12
2022-11-28T01:24:12.856Z,4.10
2022-11-28T01:26:42.083Z,4.08
2022-11-28T01:29:11.946Z,4.12
2022-11-28T01:31:41.323Z,4.08
2022-11-28T01:34:11.407Z,4.11
2022-11-28T01:36:39.995Z,4.10
2022-11-28T01:39:09.688Z,4.14
2022-11-28T01:41:40.096Z,4.14
2022-11-28T01:44:30.637Z,4.15
2022-11-28T01:46:59.317Z,4.15
2022-11-28T01:49:33.124Z,4.17
2022-11-28T01:52:06.561Z,4.15
2022-11-28T01:54:39.368Z,4.16
2022-11-28T01:57:12.647Z,4.14
2022-11-28T01:59:48.713Z,4.15
2022-11-28T02:02:33.836Z,4.12
2022-11-28T02:05:04.087Z,4.12
2022-11-28T02:07:33.726Z,4.12
2022-11-28T02:10:02.976Z,4.10
2022-11-28T02:12:46.076Z,4.07
2022-11-28T02:15:35.006Z,4.01
2022-11-28T02:18:19.535Z,3.98
2022-11-28T02:21:18.736Z,3.91
2022-11-28T02:24:11.606Z,3.92
2022-11-28T02:27:10.524Z,3.91
2022-11-28T02:30:06.610Z,3.86
2022-11-28T02:33:00.955Z,3.74
2022-11-28T02:35:39.888Z,3.72
2022-11-28T02:38:19.541Z,3.71
2022-11-28T02:40:52.956Z,3.58
2022-11-28T02:43:28.178Z,3.54
2022-11-28T02:46:02.932Z,3.46
2022-11-28T02:48:38.831Z,3.48
2022-11-28T02:51:15.290Z,3.41
2022-11-28T02:53:47.117Z,3.27
2022-11-28T02:56:16.000Z,3.30
2022-11-28T02:58:44.729Z,3.24
2022-11-28T03:01:22.070Z,3.24
2022-11-28T03:04:06.538Z,3.32
2022-11-28T03:06:47.790Z,3.33
2022-11-28T03:09:40.056Z,3.29
2022-11-28T03:12:21.168Z,3.27
2022-11-28T03:14:54.908Z,3.24
2022-11-28T03:17:38.055Z,3.17
2022-11-28T03:20:24.298Z,3.12
2022-11-28T03:23:07.942Z,3.07
2022-11-28T03:25:44.719Z,3.00
2022-11-28T03:28:20.640Z,3.02
2022-11-28T03:30:54.773Z,3.01
2022-11-28T03:33:27.190Z,3.04
2022-11-28T03:36:03.083Z,3.06
2022-11-28T03:38:39.351Z,3.05
2022-11-28T03:41:15.301Z,3.10
2022-11-28T03:43:54.061Z,3.11
2022-11-28T03:46:27.427Z,3.16
2022-11-28T03:49:00.149Z,3.09
2022-11-28T03:51:33.983Z,3.16
2022-11-28T03:54:09.411Z,3.23
2022-11-28T03:56:42.375Z,3.31
2022-11-28T03:59:14.943Z,3.38
2022-11-28T04:01:55.172Z,3.42
2022-11-28T04:04:30.522Z,3.40
2022-11-28T04:07:06.119Z,3.36
2022-11-28T04:09:44.371Z,3.42
2022-11-28T04:12:26.661Z,3.44
2022-11-28T04:15:02.011Z,3.46
2022-11-28T04:17:36.958Z,3.60
2022-11-28T04:20:10.439Z,3.74
2022-11-28T04:22:45.394Z,3.88
2022-11-28T04:25:19.320Z,3.97
2022-11-28T04:27:53.787Z,4.03
2022-11-28T04:30:22.491Z,4.07
2022-11-28T04:32:54.283Z,4.15
2022-11-28T04:35:27.100Z,4.16
2022-11-28T04:37:57.360Z,4.19
2022-11-28T04:40:31.590Z,4.20
2022-11-28T04:43:04.838Z,4.22
2022-11-28T04:45:38.745Z,4.26
2022-11-28T04:48:08.640Z,4.28
2022-11-28T04:50:43.822Z,4.22
2022-11-28T04:53:20.291Z,4.29
2022-11-28T04:55:57.710Z,4.30
2022-11-28T04:58:32.421Z,4.31
2022-11-28T05:01:03.635Z,4.31
2022-11-28T05:03:33.449Z,4.30
2022-11-28T05:06:03.371Z,4.33
2022-11-28T05:08:32.131Z,4.34
2022-11-28T05:11:02.114Z,4.35
2022-11-28T05:13:30.671Z,4.16
2022-11-28T05:16:03.676Z,4.36
2022-11-28T05:18:32.316Z,4.31
2022-11-28T05:21:01.944Z,4.38
2022-11-28T05:23:30.401Z,4.41
2022-11-28T05:25:58.952Z,4.39
2022-11-28T05:28:28.942Z,4.38
2022-11-28T05:31:01.522Z,4.40
2022-11-28T05:33:30.492Z,4.40
2022-11-28T05:36:06.375Z,4.43
2022-11-28T05:38:39.301Z,4.42
2022-11-28T05:41:08.222Z,4.42
2022-11-28T05:43:38.755Z,4.44
2022-11-28T05:46:07.721Z,4.46
2022-11-28T05:48:36.823Z,4.47
2022-11-28T05:51:05.900Z,4.49
2022-11-28T05:53:34.520Z,4.50
2022-11-28T05:56:08.483Z,4.52
2022-11-28T05:58:40.382Z,4.50
2022-11-28T06:01:14.500Z,4.50
2022-11-28T06:03:43.807Z,4.51
2022-11-28T06:06:17.872Z,4.49
2022-11-28T06:08:48.092Z,4.49
2022-11-28T06:11:17.508Z,4.50
2022-11-28T06:13:49.166Z,4.50
2022-11-28T06:16:20.621Z,4.50
2022-11-28T06:18:49.444Z,4.52
2022-11-28T06:21:18.051Z,4.51
2022-11-28T06:23:46.583Z,4.46
2022-11-28T06:26:17.490Z,4.49
2022-11-28T06:28:47.762Z,4.53
2022-11-28T06:31:19.395Z,4.51
2022-11-28T06:33:48.243Z,4.53
2022-11-28T06:36:18.635Z,4.56
2022-11-28T06:38:47.784Z,4.56
2022-11-28T06:41:19.140Z,4.58
2022-11-28T06:43:49.039Z,4.59
2022-11-28T06:46:20.121Z,4.61
2022-11-28T06:48:50.183Z,4.60
2022-11-28T06:51:20.717Z,4.62
2022-11-28T06:53:49.661Z,4.61
2022-11-28T06:56:20.527Z,4.63
2022-11-28T06:58:56.486Z,4.65
2022-11-28T07:01:26.798Z,4.66
2022-11-28T07:03:55.747Z,4.66
2022-11-28T07:06:26.484Z,4.57
2022-11-28T07:08:56.657Z,4.74
2022-11-28T07:11:27.622Z,4.75
2022-11-28T07:13:59.563Z,4.74
2022-11-28T07:16:30.528Z,4.76
2022-11-28T07:19:00.222Z,4.78
2022-11-28T07:21:29.392Z,4.76
2022-11-28T07:23:59.844Z,4.78
2022-11-28T07:26:28.686Z,4.82
2022-11-28T07:29:00.336Z,4.76
2022-11-28T07:31:32.644Z,4.87
2022-11-28T07:34:04.378Z,4.72
2022-11-28T07:36:33.810Z,4.93
2022-11-28T07:39:04.894Z,4.87
2022-11-28T07:41:33.575Z,4.94
2022-11-28T07:44:05.483Z,4.94
2022-11-28T07:46:35.359Z,4.93
2022-11-28T07:49:06.113Z,4.91
2022-11-28T07:51:35.416Z,4.93
2022-11-28T07:54:05.752Z,4.98
2022-11-28T07:57:10.779Z,5.00
2022-11-28T07:59:27.554Z,4.99
2022-11-28T08:01:56.244Z,5.01
2022-11-28T08:04:24.948Z,5.01
2022-11-28T08:06:53.686Z,5.02
2022-11-28T08:09:22.731Z,5.04
2022-11-28T08:11:53.376Z,5.06
2022-11-28T08:14:22.167Z,5.07
2022-11-28T08:16:52.549Z,5.06
2022-11-28T08:19:24.585Z,5.04
2022-11-28T08:21:54.308Z,5.02
2022-11-28T08:24:22.939Z,5.06
2022-11-28T08:26:51.598Z,5.09
2022-11-28T08:29:20.179Z,5.04
2022-11-28T08:31:48.806Z,5.13
2022-11-28T08:34:19.064Z,5.12
2022-11-28T08:36:49.345Z,5.13
2022-11-28T08:39:25.564Z,5.13
2022-11-28T08:41:57.455Z,5.15
2022-11-28T08:44:27.027Z,5.17
2022-11-28T08:46:55.967Z,5.16
2022-11-28T08:49:25.947Z,5.20
2022-11-28T08:51:54.624Z,5.18
2022-11-28T08:54:23.200Z,5.04
2022-11-28T08:56:52.195Z,5.21
2022-11-28T08:59:20.779Z,5.06
2022-11-28T09:01:49.920Z,5.19
2022-11-28T09:04:18.806Z,5.07
2022-11-28T09:06:49.028Z,5.25
2022-11-28T09:09:17.672Z,5.29
2022-11-28T09:11:47.238Z,5.30
2022-11-28T09:14:15.499Z,5.30
2022-11-28T09:16:44.007Z,5.30
2022-11-28T09:19:12.955Z,5.34
2022-11-28T09:21:42.257Z,5.31
2022-11-28T09:24:14.294Z,5.33
2022-11-28T09:26:43.835Z,5.33
2022-11-28T09:29:12.432Z,5.32
2022-11-28T09:31:44.446Z,5.38
2022-11-28T09:34:16.079Z,5.41
2022-11-28T09:36:44.530Z,5.45
2022-11-28T09:39:14.512Z,5.42
2022-11-28T09:41:57.610Z,5.53
2022-11-28T09:44:34.840Z,5.60
2022-11-28T09:47:08.108Z,5.66
2022-11-28T09:49:43.653Z,5.75
2022-11-28T09:52:26.334Z,5.77
2022-11-28T09:55:07.282Z,5.77
2022-11-28T09:57:40.636Z,5.75
2022-11-28T10:00:19.044Z,5.77
2022-11-28T10:03:13.620Z,5.73
2022-11-28T10:05:49.119Z,5.73
2022-11-28T10:08:28.572Z,5.62
2022-11-28T10:11:04.801Z,5.62
2022-11-28T10:14:07.105Z,5.57
2022-11-28T10:16:49.712Z,5.60
2022-11-28T10:19:52.776Z,5.55
2022-11-28T10:22:20.329Z,5.58
2022-11-28T10:24:55.325Z,5.49
2022-11-28T10:27:33.893Z,5.47
2022-11-28T10:30:06.362Z,5.45
2022-11-28T10:32:40.785Z,5.47
2022-11-28T10:35:28.112Z,5.48
2022-11-28T10:37:57.244Z,5.48
2022-11-28T10:40:32.992Z,5.55
2022-11-28T10:43:07.250Z,5.63
2022-11-28T10:45:44.346Z,5.66
2022-11-28T10:48:40.660Z,5.62
2022-11-28T10:51:27.043Z,5.61
2022-11-28T10:54:10.615Z,5.55
2022-11-28T10:56:47.763Z,5.47
2022-11-28T10:59:28.387Z,5.45
2022-11-28T11:01:58.896Z,5.42
2022-11-28T11:04:29.083Z,5.46
2022-11-28T11:07:11.395Z,5.47
2022-11-28T11:09:45.228Z,5.44
2022-11-28T11:12:20.196Z,5.47
2022-11-28T11:14:50.190Z,5.46
2022-11-28T11:17:36.270Z,5.51
2022-11-28T11:20:35.330Z,5.42
2022-11-28T11:23:17.902Z,5.48
2022-11-28T11:25:52.772Z,5.47
2022-11-28T11:28:34.140Z,5.50
2022-11-28T11:31:19.917Z,5.48
2022-11-28T11:33:51.822Z,5.41
2022-11-28T11:36:32.308Z,5.43
2022-11-28T11:39:19.074Z,5.45
2022-11-28T11:41:49.025Z,5.38
2022-11-28T11:44:34.632Z,5.51
2022-11-28T11:47:07.805Z,5.51
2022-11-28T11:49:38.339Z,5.52
2022-11-28T11:52:15.319Z,5.58
2022-11-28T11:54:58.122Z,5.61
2022-11-28T11:57:34.431Z,5.61
2022-11-28T12:00:08.423Z,5.40
2022-11-28T12:02:51.090Z,5.53
2022-11-28T12:05:21.628Z,5.57
2022-11-28T12:07:59.243Z,5.58
2022-11-28T12:10:30.082Z,5.67
2022-11-28T12:12:59.054Z,5.73
2022-11-28T12:15:41.847Z,5.76
2022-11-28T12:18:24.554Z,5.82
2022-11-28T12:21:08.079Z,5.85
2022-11-28T12:23:59.566Z,5.89
2022-11-28T12:26:38.164Z,5.91
2022-11-28T12:32:10.869Z,5.97
2022-11-28T12:34:57.639Z,5.96
2022-11-28T12:38:08.973Z,5.99
2022-11-28T12:40:39.787Z,5.93
2022-11-28T12:43:25.947Z,5.94
2022-11-28T12:46:01.093Z,5.94
2022-11-28T12:48:45.373Z,5.90
2022-11-28T12:51:29.585Z,5.96
2022-11-28T12:54:17.533Z,5.92
2022-11-28T12:56:54.530Z,5.91
2022-11-28T12:59:29.377Z,5.91
2022-11-28T13:02:16.092Z,5.96
2022-11-28T13:05:02.709Z,5.97
2022-11-28T13:07:44.393Z,6.01
2022-11-28T13:10:22.146Z,6.01
2022-11-28T13:12:59.827Z,5.90
2022-11-28T13:15:49.065Z,6.01
2022-11-28T13:18:34.030Z,6.01
2022-11-28T13:21:11.297Z,5.97
2022-11-28T13:23:49.607Z,5.91
2022-11-28T13:26:29.399Z,5.96
2022-11-28T13:29:06.941Z,5.93
2022-11-28T13:31:42.734Z,5.84
2022-11-28T13:34:17.086Z,5.82
2022-11-28T13:39:50.599Z,5.77
2022-11-28T13:45:32.723Z,5.80
2022-11-28T13:48:01.608Z,5.80
2022-11-28T13:50:40.108Z,5.78
2022-11-28T13:53:25.630Z,5.75
2022-11-28T13:56:11.673Z,5.70
2022-11-28T13:58:50.650Z,5.53
2022-11-28T14:01:21.713Z,5.56
2022-11-28T14:03:54.154Z,5.64
2022-11-28T14:06:27.447Z,5.67
2022-11-28T14:09:06.315Z,5.64
2022-11-28T14:11:56.523Z,5.62
2022-11-28T14:14:57.630Z,5.55
2022-11-28T14:17:44.249Z,5.54
2022-11-28T14:20:25.572Z,5.47
2022-11-28T14:23:08.333Z,5.49
2022-11-28T14:25:42.864Z,5.39
2022-11-28T14:28:23.825Z,5.38
2022-11-28T14:31:01.778Z,5.47
2022-11-28T14:33:37.455Z,5.45
2022-11-28T14:36:24.236Z,5.42
2022-11-28T14:39:20.433Z,5.43
2022-11-28T14:42:25.423Z,5.43
2022-11-28T14:45:08.397Z,5.38
2022-11-28T14:47:43.341Z,5.33
2022-11-28T14:50:32.700Z,5.29
2022-11-28T14:53:26.454Z,5.26
2022-11-28T14:55:56.186Z,5.16
2022-11-28T14:58:24.935Z,5.16
2022-11-28T15:00:58.236Z,5.13
2022-11-28T15:03:39.294Z,5.09
2022-11-28T15:06:14.673Z,5.11
2022-11-28T15:08:58.545Z,5.09
2022-11-28T15:11:43.962Z,5.07
2022-11-28T15:14:23.019Z,5.05
2022-11-28T15:16:57.804Z,5.05
2022-11-28T15:19:32.923Z,5.05
2022-11-28T15:22:02.585Z,5.08
2022-11-28T15:24:35.627Z,4.90
2022-11-28T15:27:24.746Z,5.04
2022-11-28T15:29:58.585Z,5.02
2022-11-28T15:32:31.357Z,5.01
2022-11-28T15:35:10.823Z,4.94
2022-11-28T15:37:49.908Z,4.95
2022-11-28T15:40:21.820Z,4.96
2022-11-28T15:42:51.719Z,4.93
2022-11-28T15:45:26.593Z,4.91
2022-11-28T15:47:58.108Z,4.88
2022-11-28T15:50:29.049Z,4.87
2022-11-28T15:52:59.748Z,4.88
2022-11-28T15:55:32.913Z,4.73
2022-11-28T15:58:14.617Z,4.86
2022-11-28T16:00:46.066Z,4.82
2022-11-28T16:03:20.235Z,4.83
2022-11-28T16:05:52.084Z,4.83
2022-11-28T16:08:28.473Z,4.81
2022-11-28T16:10:59.474Z,4.81
2022-11-28T16:13:31.858Z,4.81
2022-11-28T16:16:04.291Z,4.80
2022-11-28T16:18:34.524Z,4.78
2022-11-28T16:21:04.378Z,4.74
2022-11-28T16:23:37.816Z,4.74
2022-11-28T16:26:09.409Z,4.72
2022-11-28T16:28:40.929Z,4.69
2022-11-28T16:31:13.381Z,4.66
2022-11-28T16:33:45.027Z,4.49
2022-11-28T16:36:24.968Z,4.66
2022-11-28T16:39:04.775Z,4.64
2022-11-28T16:41:34.234Z,4.62
2022-11-28T16:44:05.283Z,4.59
2022-11-28T16:46:38.215Z,4.53
2022-11-28T16:49:28.706Z,4.58
2022-11-28T16:52:30.556Z,4.58
2022-11-28T16:54:59.949Z,4.54
2022-11-28T16:57:47.308Z,4.50
2022-11-28T17:00:16.444Z,4.37
2022-11-28T17:02:45.006Z,4.48
2022-11-28T17:05:14.955Z,4.45
2022-11-28T17:07:44.065Z,4.42
2022-11-28T17:10:13.842Z,4.46
2022-11-28T17:12:42.620Z,4.44
2022-11-28T17:15:17.419Z,4.40
2022-11-28T17:17:46.069Z,4.40
2022-11-28T17:20:18.068Z,4.43
2022-11-28T17:22:50.239Z,4.42
2022-11-28T17:25:21.025Z,4.40
2022-11-28T17:27:49.717Z,4.37
2022-11-28T17:30:20.720Z,4.35
2022-11-28T17:32:49.326Z,4.31
2022-11-28T17:35:23.826Z,4.28
2022-11-28T17:37:52.798Z,4.35
2022-11-28T17:40:30.436Z,4.37
2022-11-28T17:42:59.096Z,4.36
2022-11-28T17:45:31.803Z,4.32
2022-11-28T17:48:00.816Z,4.27
2022-11-28T17:50:31.039Z,4.29
2022-11-28T17:52:59.735Z,4.28
2022-11-28T17:55:29.797Z,4.28
2022-11-28T17:57:59.316Z,4.27
2022-11-28T18:00:29.551Z,4.22
2022-11-28T18:02:59.628Z,4.21
2022-11-28T18:05:28.605Z,4.25
2022-11-28T18:07:58.666Z,4.25
2022-11-28T18:10:27.700Z,4.26
2022-11-28T18:12:56.686Z,4.27
2022-11-28T18:15:28.607Z,4.26
2022-11-28T18:17:57.328Z,4.27
2022-11-28T18:20:29.086Z,4.31
2022-11-28T18:23:00.583Z,4.33
2022-11-28T18:25:29.638Z,4.35
2022-11-28T18:27:58.318Z,4.37
2022-11-28T18:30:27.010Z,4.38
2022-11-28T18:32:55.640Z,4.37
2022-11-28T18:35:24.858Z,4.35
2022-11-28T18:37:55.051Z,4.36
2022-11-28T18:40:25.288Z,4.42
2022-11-28T18:42:54.360Z,4.38
2022-11-28T18:45:23.883Z,4.36
2022-11-28T18:47:58.672Z,4.40
2022-11-28T18:50:28.771Z,4.35
2022-11-28T18:52:57.418Z,4.28
2022-11-28T18:55:27.590Z,4.37
2022-11-28T18:57:56.321Z,4.36
2022-11-28T19:00:26.308Z,4.36
2022-11-28T19:02:56.040Z,4.39
2022-11-28T19:05:24.831Z,4.28
2022-11-28T19:07:54.346Z,4.44
2022-11-28T19:10:23.088Z,4.38
2022-11-28T19:12:53.052Z,4.46
2022-11-28T19:15:21.981Z,4.49
2022-11-28T19:17:50.600Z,4.50
2022-11-28T19:20:19.683Z,4.52
2022-11-28T19:22:49.871Z,4.54
2022-11-28T19:25:18.579Z,4.56
2022-11-28T19:27:47.397Z,4.57
2022-11-28T19:30:17.921Z,4.60
2022-11-28T19:32:46.558Z,4.60
2022-11-28T19:35:15.304Z,4.60
2022-11-28T19:37:45.423Z,4.62
2022-11-28T19:40:14.938Z,4.60
2022-11-28T19:42:43.648Z,4.61
2022-11-28T19:45:12.773Z,4.60
2022-11-28T19:47:43.150Z,4.61
2022-11-28T19:50:12.487Z,4.61
2022-11-28T19:52:41.379Z,4.60
2022-11-28T19:55:10.118Z,4.63
2022-11-28T19:57:39.009Z,4.61
2022-11-28T20:00:08.692Z,4.63
2022-11-28T20:02:44.109Z,4.64
2022-11-28T20:05:13.257Z,4.66
2022-11-28T20:07:42.573Z,4.65
2022-11-28T20:10:11.527Z,4.67
2022-11-28T20:12:40.330Z,4.65
2022-11-28T20:15:15.200Z,4.66
2022-11-28T20:17:48.587Z,4.66
2022-11-28T20:20:17.413Z,4.69
2022-11-28T20:22:46.053Z,4.72
2022-11-28T20:25:20.599Z,4.74
2022-11-28T20:27:51.730Z,4.76
2022-11-28T20:30:21.171Z,4.74
2022-11-28T20:32:55.009Z,4.76
2022-11-28T20:35:26.079Z,4.72
2022-11-28T20:37:55.029Z,4.62
2022-11-28T20:40:23.669Z,4.70
2022-11-28T20:42:52.464Z,4.68
2022-11-28T20:45:21.032Z,4.65
2022-11-28T20:47:50.175Z,4.67
2022-11-28T20:50:20.592Z,4.65
2022-11-28T20:52:49.497Z,4.65
2022-11-28T20:55:18.041Z,4.67
2022-11-28T20:57:47.298Z,4.67
2022-11-28T21:00:16.808Z,4.65
2022-11-28T21:02:46.580Z,4.68
2022-11-28T21:05:15.536Z,4.61
2022-11-28T21:07:45.557Z,4.68
2022-11-28T21:10:14.178Z,4.57
2022-11-28T21:12:42.729Z,4.68
2022-11-28T21:15:12.141Z,4.67
2022-11-28T21:17:40.807Z,4.65
2022-11-28T21:20:10.620Z,4.65
2022-11-28T21:22:38.937Z,4.64
2022-11-28T21:25:09.380Z,4.64
2022-11-28T21:27:38.009Z,4.61
2022-11-28T21:30:07.776Z,4.57
2022-11-28T21:32:36.528Z,4.58
2022-11-28T21:35:05.567Z,4.53
2022-11-28T21:37:34.228Z,4.51
2022-11-28T21:40:02.771Z,4.52
2022-11-28T21:42:33.170Z,4.52
2022-11-28T21:45:01.810Z,4.46
2022-11-28T21:47:30.515Z,4.44
2022-11-28T21:49:59.324Z,4.43
2022-11-28T21:52:28.071Z,4.32
2022-11-28T21:54:56.750Z,4.41
2022-11-28T21:57:25.471Z,4.43
2022-11-28T21:59:56.102Z,4.41
2022-11-28T22:02:30.421Z,4.43
2022-11-28T22:05:00.232Z,4.43
2022-11-28T22:07:29.055Z,4.44
2022-11-28T22:09:59.316Z,4.43
2022-11-28T22:12:28.870Z,4.43
2022-11-28T22:14:58.975Z,4.40
2022-11-28T22:17:28.021Z,4.40
2022-11-28T22:19:57.880Z,4.40
2022-11-28T22:22:27.689Z,4.39
2022-11-28T22:24:56.520Z,4.38
2022-11-28T22:27:25.088Z,4.33
2022-11-28T22:29:53.964Z,4.29
2022-11-28T22:32:23.964Z,4.29
2022-11-28T22:34:52.631Z,4.26
2022-11-28T22:37:21.290Z,4.24
2022-11-28T22:39:49.943Z,4.25
2022-11-28T22:42:18.616Z,4.27
2022-11-28T22:44:48.617Z,4.31
2022-11-28T22:47:17.400Z,4.32
2022-11-28T22:49:47.782Z,4.36
2022-11-28T22:52:17.349Z,4.37
2022-11-28T22:54:46.390Z,4.38
2022-11-28T22:57:15.256Z,4.42
2022-11-28T22:59:43.841Z,4.44
2022-11-28T23:02:12.553Z,4.45
2022-11-28T23:04:41.435Z,4.48
2022-11-28T23:07:11.629Z,4.49
2022-11-28T23:09:40.356Z,4.49
2022-11-28T23:12:09.040Z,4.48
2022-11-28T23:14:37.965Z,4.49
2022-11-28T23:17:06.658Z,4.50
2022-11-28T23:19:35.539Z,4.53
2022-11-28T23:22:05.069Z,4.52
2022-11-28T23:24:36.264Z,4.50
2022-11-28T23:27:06.340Z,4.54
2022-11-28T23:29:35.669Z,4.54
2022-11-28T23:32:04.548Z,4.53
2022-11-28T23:34:33.192Z,4.55
2022-11-28T23:37:02.307Z,4.55
2022-11-28T23:39:30.931Z,4.52
2022-11-28T23:42:09.160Z,4.52
2022-11-28T23:44:37.774Z,4.54
2022-11-28T23:47:06.820Z,4.39
2022-11-28T23:49:35.899Z,4.55
2022-11-28T23:52:04.672Z,4.52
2022-11-28T23:54:33.348Z,4.56
2022-11-28T23:57:02.111Z,4.56
2022-11-28T23:59:32.239Z,4.57
